Time;durP1;ratioP1;P1;durP2;ratioP2;P2;SDS_P1;SDS_P2;PMS_P1;PMS_P2;Temp;Humidity;BMP_temperature;BMP_pressure;BME280_temperature;BME280_humidity;BME280_pressure;Samples;Min_cycle;Max_cycle;Signal;HPM_P1;HPM_P2
2023/12/06 00:01:03;;;;;;;55.75;28.13;;;1.40;99.90;;;;;;4976947;28;20086;-78
2023/12/06 00:03:28;;;;;;;51.10;27.15;;;1.40;99.90;;;;;;4977716;28;20039;-78
2023/12/06 00:05:54;;;;;;;53.53;28.15;;;1.30;99.90;;;;;;4977945;28;20039;-78
2023/12/06 00:08:19;;;;;;;56.65;28.67;;;1.40;99.90;;;;;;4978276;28;20038;-78
2023/12/06 00:10:47;;;;;;;52.45;28.90;;;1.50;99.90;;;;;;4979129;28;20047;-78
2023/12/06 00:13:13;;;;;;;53.72;28.42;;;1.50;99.90;;;;;;4979430;28;20043;-78
2023/12/06 00:15:38;;;;;;;51.50;27.52;;;1.30;99.90;;;;;;4977901;28;20043;-78
2023/12/06 00:18:04;;;;;;;50.47;28.40;;;1.30;99.90;;;;;;4974605;28;20134;-77
2023/12/06 00:20:30;;;;;;;54.03;28.55;;;1.40;99.90;;;;;;4980335;28;20043;-78
2023/12/06 00:22:55;;;;;;;53.03;26.90;;;1.40;99.90;;;;;;4981511;28;20066;-78
2023/12/06 00:25:21;;;;;;;50.22;27.08;;;1.50;99.90;;;;;;4964938;28;20034;-78
2023/12/06 00:27:46;;;;;;;53.15;28.50;;;1.30;99.90;;;;;;4981355;28;20053;-78
2023/12/06 00:30:12;;;;;;;48.92;26.67;;;1.20;99.90;;;;;;4982219;28;20082;-78
2023/12/06 00:32:38;;;;;;;56.35;28.35;;;1.30;99.90;;;;;;4982904;28;20039;-78
2023/12/06 00:35:04;;;;;;;50.75;28.10;;;1.30;99.90;;;;;;4983792;28;20079;-78
2023/12/06 00:37:30;;;;;;;47.92;27.48;;;1.40;99.90;;;;;;4967104;28;20042;-78
2023/12/06 00:39:55;;;;;;;55.72;28.52;;;1.50;99.90;;;;;;4984256;28;20035;-78
2023/12/06 00:42:21;;;;;;;55.78;30.65;;;1.40;99.90;;;;;;4984138;28;20042;-78
2023/12/06 00:44:46;;;;;;;50.03;27.05;;;1.40;99.90;;;;;;4984736;28;20031;-78
2023/12/06 00:47:12;;;;;;;56.55;29.27;;;1.40;99.90;;;;;;4984747;28;20062;-78
2023/12/06 00:49:37;;;;;;;50.53;26.80;;;1.40;99.90;;;;;;4985258;28;20046;-78
2023/12/06 00:52:03;;;;;;;51.63;28.42;;;1.30;99.90;;;;;;4969501;28;20045;-78
2023/12/06 00:54:29;;;;;;;57.33;29.48;;;1.30;99.90;;;;;;4985059;28;20050;-78
2023/12/06 00:56:54;;;;;;;46.30;26.55;;;1.50;99.90;;;;;;4995344;28;20030;-78
2023/12/06 00:59:20;;;;;;;51.75;26.85;;;1.30;99.90;;;;;;4997317;28;20046;-78
2023/12/06 01:01:46;;;;;;;54.45;28.40;;;1.60;99.90;;;;;;5003572;28;20035;-78
2023/12/06 01:04:11;;;;;;;50.35;27.77;;;1.40;99.90;;;;;;4995775;28;20043;-78
2023/12/06 01:06:37;;;;;;;53.25;27.10;;;1.60;99.90;;;;;;5006511;28;20042;-78
2023/12/06 01:09:03;;;;;;;61.05;28.90;;;1.60;99.90;;;;;;5006656;28;20084;-78
2023/12/06 01:11:29;;;;;;;51.33;28.17;;;1.50;99.90;;;;;;5007585;28;20173;-78
2023/12/06 01:13:54;;;;;;;54.22;27.45;;;1.40;99.90;;;;;;5009120;28;20046;-78
2023/12/06 01:16:20;;;;;;;51.35;27.92;;;1.60;99.90;;;;;;4995035;28;20026;-78
2023/12/06 01:18:47;;;;;;;51.53;28.00;;;1.50;99.90;;;;;;5011068;28;20034;-78
2023/12/06 01:21:12;;;;;;;49.60;27.00;;;1.60;99.90;;;;;;4994671;28;20038;-78
2023/12/06 01:23:38;;;;;;;49.33;26.90;;;1.60;99.90;;;;;;5010497;28;20128;-78
2023/12/06 01:26:04;;;;;;;50.13;27.33;;;1.40;99.90;;;;;;5013833;28;20034;-78
2023/12/06 01:28:29;;;;;;;53.88;29.65;;;1.50;99.90;;;;;;5012339;28;20046;-78
2023/12/06 01:30:58;;;;;;;47.70;27.10;;;1.40;99.90;;;;;;5012709;28;20034;-78
2023/12/06 01:33:24;;;;;;;51.03;27.27;;;1.50;99.90;;;;;;5029761;28;20056;-78
2023/12/06 01:35:49;;;;;;;54.53;28.42;;;1.60;99.90;;;;;;4991502;28;20073;-78
2023/12/06 01:38:18;;;;;;;49.40;27.77;;;1.60;99.90;;;;;;5000427;28;20038;-78
2023/12/06 01:40:44;;;;;;;52.60;26.33;;;1.40;99.90;;;;;;5006507;28;20218;-78
2023/12/06 01:43:10;;;;;;;45.75;25.40;;;1.40;99.90;;;;;;5011873;28;20034;-78
2023/12/06 01:45:36;;;;;;;49.65;26.75;;;1.60;99.90;;;;;;4989052;28;20074;-78
2023/12/06 01:48:03;;;;;;;54.65;28.13;;;1.60;99.90;;;;;;5002652;28;20046;-78
2023/12/06 01:50:30;;;;;;;54.55;30.70;;;1.40;99.90;;;;;;5011774;28;20038;-78
2023/12/06 01:52:58;;;;;;;48.00;26.00;;;1.60;99.90;;;;;;5011210;28;20042;-78
2023/12/06 01:55:24;;;;;;;52.40;26.25;;;1.50;99.90;;;;;;5011311;28;20081;-78
2023/12/06 01:57:51;;;;;;;53.67;27.58;;;1.60;99.90;;;;;;5011390;28;20046;-78
2023/12/06 02:00:17;;;;;;;57.10;28.33;;;1.60;99.90;;;;;;5011036;28;20154;-78
2023/12/06 02:02:44;;;;;;;49.13;27.45;;;1.60;99.90;;;;;;5011294;28;20038;-78
2023/12/06 02:05:12;;;;;;;55.45;28.00;;;1.50;99.90;;;;;;5010990;28;20052;-78
2023/12/06 02:07:40;;;;;;;52.75;27.98;;;1.50;99.90;;;;;;5007376;28;20114;-78
2023/12/06 02:10:06;;;;;;;50.38;27.30;;;1.60;99.90;;;;;;5003761;28;20042;-78
2023/12/06 02:12:32;;;;;;;53.13;29.77;;;1.40;99.90;;;;;;5011588;28;20042;-78
2023/12/06 02:14:59;;;;;;;53.55;27.38;;;1.40;99.90;;;;;;5010765;28;20038;-78
2023/12/06 02:17:25;;;;;;;58.42;30.27;;;1.40;99.90;;;;;;5009861;28;20050;-78
2023/12/06 02:19:52;;;;;;;56.90;28.52;;;1.60;99.90;;;;;;5011104;28;20062;-78
2023/12/06 02:22:18;;;;;;;55.63;27.55;;;1.50;99.90;;;;;;5011949;28;20046;-78
2023/12/06 02:24:47;;;;;;;59.47;29.70;;;1.60;99.90;;;;;;4993553;28;20051;-78
2023/12/06 02:27:12;;;;;;;58.55;29.67;;;1.50;99.90;;;;;;5010348;28;20049;-78
2023/12/06 02:29:38;;;;;;;55.42;27.85;;;1.40;99.90;;;;;;5005309;28;20046;-78
2023/12/06 02:32:04;;;;;;;55.00;30.48;;;1.50;99.90;;;;;;5010078;28;20038;-78
2023/12/06 02:34:31;;;;;;;53.42;29.05;;;1.40;99.90;;;;;;5010041;28;20085;-79
2023/12/06 02:37:00;;;;;;;52.83;28.20;;;1.40;99.90;;;;;;4994008;28;20038;-79
2023/12/06 02:39:34;;;;;;;52.72;28.40;;;1.40;99.90;;;;;;5004489;28;20112;-78
2023/12/06 02:42:00;;;;;;;53.03;26.67;;;1.40;99.90;;;;;;5009997;28;20042;-78
2023/12/06 02:44:26;;;;;;;46.90;27.13;;;1.50;99.90;;;;;;5011356;28;20022;-78
2023/12/06 02:46:52;;;;;;;57.55;28.77;;;1.40;99.90;;;;;;5009748;28;20065;-78
2023/12/06 02:49:18;;;;;;;54.63;27.00;;;1.40;99.90;;;;;;5005605;28;20414;-78
2023/12/06 02:51:43;;;;;;;54.58;26.55;;;1.50;99.90;;;;;;5000397;28;20046;-78
2023/12/06 02:54:09;;;;;;;53.05;25.88;;;1.60;99.90;;;;;;5000062;28;20038;-78
2023/12/06 02:56:35;;;;;;;53.60;27.27;;;1.50;99.90;;;;;;4998881;28;20082;-78
2023/12/06 02:59:01;;;;;;;49.38;26.70;;;1.60;99.90;;;;;;4999322;28;20074;-78
2023/12/06 03:01:26;;;;;;;51.50;26.05;;;1.40;99.90;;;;;;4999682;28;20104;-78
2023/12/06 03:03:52;;;;;;;52.92;27.38;;;1.60;99.90;;;;;;5000644;28;20058;-78
2023/12/06 03:06:17;;;;;;;50.15;25.70;;;1.50;99.90;;;;;;5000695;28;20069;-78
2023/12/06 03:08:43;;;;;;;52.30;27.20;;;1.50;99.90;;;;;;5000811;28;20081;-78
2023/12/06 03:11:08;;;;;;;46.88;23.90;;;1.60;99.90;;;;;;5000920;28;20042;-78
2023/12/06 03:13:34;;;;;;;43.95;25.00;;;1.40;99.90;;;;;;5001509;28;20054;-78
2023/12/06 03:16:00;;;;;;;36.20;21.98;;;1.60;99.90;;;;;;4999617;28;20038;-78
2023/12/06 03:18:26;;;;;;;38.33;21.75;;;1.60;99.90;;;;;;5003628;28;20042;-78
2023/12/06 03:20:52;;;;;;;33.50;20.25;;;1.60;99.90;;;;;;5000586;28;20506;-78
2023/12/06 03:23:17;;;;;;;33.65;19.83;;;1.60;99.90;;;;;;5001063;28;20146;-78
2023/12/06 03:25:43;;;;;;;34.20;19.42;;;1.60;99.90;;;;;;5001140;28;20026;-78
2023/12/06 03:28:09;;;;;;;34.67;18.83;;;1.40;99.90;;;;;;4999994;28;20044;-78
2023/12/06 03:30:34;;;;;;;31.10;18.10;;;1.40;99.90;;;;;;5000897;28;20142;-78
2023/12/06 03:33:00;;;;;;;34.25;17.75;;;1.50;99.90;;;;;;5017616;28;20050;-78
2023/12/06 03:35:26;;;;;;;30.25;17.45;;;1.50;99.90;;;;;;4998495;28;20042;-78
2023/12/06 03:37:51;;;;;;;31.15;17.92;;;1.60;99.90;;;;;;5001069;28;20057;-79
2023/12/06 03:40:17;;;;;;;30.23;17.05;;;1.50;99.90;;;;;;4995170;28;20117;-79
2023/12/06 03:42:43;;;;;;;25.80;15.10;;;1.60;99.90;;;;;;5016270;28;20391;-79
2023/12/06 03:45:09;;;;;;;29.17;15.80;;;1.40;99.90;;;;;;5000544;28;20038;-79
2023/12/06 03:47:35;;;;;;;29.80;17.27;;;1.50;99.90;;;;;;4999491;28;20042;-79
2023/12/06 03:50:00;;;;;;;27.02;16.35;;;1.60;99.90;;;;;;4999757;28;20184;-79
2023/12/06 03:52:26;;;;;;;27.27;16.27;;;1.70;99.90;;;;;;4995571;28;20067;-79
2023/12/06 03:54:52;;;;;;;31.77;16.70;;;1.40;99.90;;;;;;4995731;28;20077;-79
2023/12/06 03:57:17;;;;;;;27.70;16.38;;;1.50;99.90;;;;;;4995776;28;20049;-79
2023/12/06 03:59:43;;;;;;;26.08;15.77;;;1.60;99.90;;;;;;4995668;28;20038;-79
2023/12/06 04:02:08;;;;;;;26.88;15.88;;;1.70;99.90;;;;;;4996469;28;20490;-79
2023/12/06 04:04:34;;;;;;;27.38;16.27;;;1.70;99.90;;;;;;4995062;28;20041;-79
2023/12/06 04:06:59;;;;;;;25.38;14.98;;;1.50;99.90;;;;;;4995609;28;20104;-79
2023/12/06 04:09:25;;;;;;;27.30;16.85;;;1.70;99.90;;;;;;4995465;28;20077;-79
2023/12/06 04:11:51;;;;;;;26.85;15.95;;;1.50;99.90;;;;;;4995713;28;20073;-79
2023/12/06 04:14:17;;;;;;;26.42;15.73;;;1.70;99.90;;;;;;4995674;28;20058;-79
2023/12/06 04:16:42;;;;;;;26.30;16.33;;;1.50;99.90;;;;;;4979048;28;20093;-79
2023/12/06 04:19:08;;;;;;;25.40;14.18;;;1.60;99.90;;;;;;4979801;28;20034;-79
2023/12/06 04:21:34;;;;;;;26.38;15.93;;;1.50;99.90;;;;;;4997209;28;20038;-79
2023/12/06 04:23:59;;;;;;;23.65;14.80;;;1.60;99.90;;;;;;4995622;28;20043;-79
2023/12/06 04:26:25;;;;;;;26.27;15.85;;;1.60;99.90;;;;;;4977153;28;20034;-79
2023/12/06 04:28:50;;;;;;;27.13;15.45;;;1.70;99.90;;;;;;4994368;28;20049;-79
2023/12/06 04:31:16;;;;;;;28.67;17.10;;;1.60;99.90;;;;;;4995164;28;20070;-79
2023/12/06 04:33:42;;;;;;;27.67;15.02;;;1.70;99.90;;;;;;4995216;28;20049;-79
2023/12/06 04:36:08;;;;;;;26.10;16.02;;;1.70;99.90;;;;;;4995600;28;20061;-79
2023/12/06 04:38:33;;;;;;;25.55;15.85;;;1.50;99.90;;;;;;4979252;28;20410;-79
2023/12/06 04:40:59;;;;;;;24.38;16.17;;;1.60;99.90;;;;;;4995186;28;20038;-79
2023/12/06 04:43:24;;;;;;;26.05;15.38;;;1.80;99.90;;;;;;4995035;28;20497;-79
2023/12/06 04:45:50;;;;;;;26.33;16.42;;;1.50;99.90;;;;;;5012299;28;20044;-79
2023/12/06 04:48:16;;;;;;;27.27;15.43;;;1.50;99.90;;;;;;4995538;28;20049;-79
2023/12/06 04:50:41;;;;;;;22.90;14.55;;;1.50;99.90;;;;;;4983515;28;20038;-78
2023/12/06 04:53:07;;;;;;;25.75;14.63;;;1.50;99.90;;;;;;5000924;28;20406;-78
2023/12/06 04:55:33;;;;;;;24.70;14.15;;;1.50;99.90;;;;;;4996729;28;20061;-79
2023/12/06 04:57:58;;;;;;;23.20;13.02;;;1.80;99.90;;;;;;4995891;28;20042;-79
2023/12/06 05:00:26;;;;;;;23.98;14.25;;;1.80;99.90;;;;;;4999695;28;20046;-79
2023/12/06 05:02:52;;;;;;;23.08;15.02;;;1.50;99.90;;;;;;4998995;28;20413;-79
2023/12/06 05:05:17;;;;;;;24.15;14.82;;;1.80;99.90;;;;;;5000596;28;20034;-79
2023/12/06 05:07:43;;;;;;;24.33;14.07;;;1.80;99.90;;;;;;4998783;28;20042;-79
2023/12/06 05:10:08;;;;;;;20.77;12.63;;;1.90;99.90;;;;;;4999361;28;20073;-79
2023/12/06 05:12:34;;;;;;;25.65;14.05;;;1.70;99.90;;;;;;5000958;28;20042;-79
2023/12/06 05:15:00;;;;;;;22.73;13.75;;;1.80;99.90;;;;;;5001378;28;20053;-79
2023/12/06 05:17:25;;;;;;;21.58;13.70;;;1.70;99.90;;;;;;4999804;28;20077;-79
2023/12/06 05:19:51;;;;;;;21.15;13.90;;;1.70;99.90;;;;;;4984075;28;20052;-79
2023/12/06 05:22:16;;;;;;;21.35;12.55;;;1.60;99.90;;;;;;5000810;28;20038;-79
2023/12/06 05:24:42;;;;;;;22.13;13.65;;;1.70;99.90;;;;;;5000409;28;20104;-79
2023/12/06 05:27:08;;;;;;;21.27;13.80;;;1.60;99.90;;;;;;4999915;28;20038;-79
2023/12/06 05:29:33;;;;;;;21.60;14.00;;;1.60;99.90;;;;;;5000636;28;20045;-79
2023/12/06 05:31:59;;;;;;;23.10;14.00;;;1.70;99.90;;;;;;4999987;28;20046;-79
2023/12/06 05:34:25;;;;;;;21.45;13.77;;;1.70;99.90;;;;;;4996161;28;20576;-79
2023/12/06 05:36:50;;;;;;;22.48;14.00;;;1.90;99.90;;;;;;4999643;28;20049;-79
2023/12/06 05:39:16;;;;;;;24.67;13.93;;;1.60;99.90;;;;;;4999151;28;20502;-79
2023/12/06 05:41:42;;;;;;;23.67;14.02;;;1.90;99.90;;;;;;4982356;28;20053;-79
2023/12/06 05:44:08;;;;;;;25.15;14.50;;;1.70;99.90;;;;;;4998692;28;20065;-80
2023/12/06 05:46:34;;;;;;;23.90;14.07;;;1.90;99.90;;;;;;4999088;28;20034;-80
2023/12/06 05:48:59;;;;;;;22.55;14.77;;;1.70;99.90;;;;;;5015081;28;20046;-79
2023/12/06 05:51:25;;;;;;;23.52;14.43;;;1.70;99.90;;;;;;5012586;28;20066;-79
2023/12/06 05:53:51;;;;;;;23.02;14.10;;;1.80;99.90;;;;;;5004887;28;20049;-79
2023/12/06 05:56:17;;;;;;;23.17;13.82;;;1.90;99.90;;;;;;4983955;28;20094;-79
2023/12/06 05:58:42;;;;;;;22.40;12.80;;;1.70;99.90;;;;;;5002139;28;20109;-79
2023/12/06 06:01:08;;;;;;;24.30;14.27;;;1.80;99.90;;;;;;5000752;28;20126;-80
2023/12/06 06:03:34;;;;;;;23.23;14.60;;;1.70;99.90;;;;;;5001362;28;20772;-80
2023/12/06 06:06:07;;;;;;;20.50;13.98;;;2.00;99.90;;;;;;4996405;28;20082;-77
2023/12/06 06:08:36;;;;;;;24.67;13.52;;;2.00;99.90;;;;;;4996736;28;20042;-77
2023/12/06 06:11:04;;;;;;;22.67;14.20;;;1.90;99.90;;;;;;4981593;28;20074;-78
2023/12/06 06:13:30;;;;;;;21.95;13.60;;;1.80;99.90;;;;;;4997731;28;20383;-78
2023/12/06 06:15:56;;;;;;;25.60;15.20;;;1.70;99.90;;;;;;4997024;28;20140;-78
2023/12/06 06:18:22;;;;;;;27.25;14.85;;;2.00;99.90;;;;;;4996959;28;20042;-77
2023/12/06 06:20:48;;;;;;;24.83;15.40;;;1.70;99.90;;;;;;4997875;28;20621;-79
2023/12/06 06:23:13;;;;;;;24.33;15.30;;;1.70;99.90;;;;;;4983588;28;20058;-79
2023/12/06 06:25:39;;;;;;;21.55;15.07;;;1.90;99.90;;;;;;4999910;28;20038;-79
2023/12/06 06:28:05;;;;;;;21.98;14.13;;;2.00;99.90;;;;;;4998991;28;20046;-79
2023/12/06 06:30:30;;;;;;;24.55;15.45;;;1.90;99.90;;;;;;4998842;28;20446;-78
2023/12/06 06:32:57;;;;;;;24.00;14.43;;;2.00;99.90;;;;;;4982063;28;20065;-78
2023/12/06 06:35:23;;;;;;;24.05;14.50;;;2.00;99.90;;;;;;4997616;28;20061;-78
2023/12/06 06:37:49;;;;;;;23.88;15.60;;;1.80;99.90;;;;;;4999228;28;20100;-79
2023/12/06 06:40:14;;;;;;;24.40;15.52;;;2.10;99.90;;;;;;5000490;28;20042;-78
2023/12/06 06:42:41;;;;;;;22.55;15.65;;;1.80;99.90;;;;;;5000456;28;20030;-78
2023/12/06 06:45:08;;;;;;;27.38;15.98;;;2.00;99.90;;;;;;4998867;28;20038;-78
2023/12/06 06:47:34;;;;;;;27.55;15.32;;;2.10;99.90;;;;;;4986499;28;20038;-79
2023/12/06 06:50:00;;;;;;;25.33;15.48;;;2.10;99.90;;;;;;5002699;28;20038;-78
2023/12/06 06:52:26;;;;;;;23.23;15.63;;;2.00;99.90;;;;;;5003291;28;20041;-78
2023/12/06 06:54:52;;;;;;;22.58;15.35;;;2.10;99.90;;;;;;5002671;28;20124;-78
2023/12/06 06:57:18;;;;;;;23.00;15.65;;;2.00;99.90;;;;;;4986130;28;20038;-78
2023/12/06 06:59:43;;;;;;;23.50;15.63;;;1.90;99.90;;;;;;5003219;28;20038;-79
2023/12/06 07:02:10;;;;;;;25.13;15.68;;;1.90;99.90;;;;;;5002899;28;20034;-79
2023/12/06 07:04:38;;;;;;;23.17;15.77;;;1.90;99.90;;;;;;4986181;28;20093;-78
2023/12/06 07:07:04;;;;;;;21.00;15.02;;;1.90;99.90;;;;;;5002605;28;20405;-79
2023/12/06 07:09:30;;;;;;;22.58;14.63;;;1.90;99.90;;;;;;5003871;28;20048;-79
2023/12/06 07:11:55;;;;;;;24.77;15.25;;;2.10;99.90;;;;;;5001887;28;20092;-78
2023/12/06 07:14:21;;;;;;;24.15;15.93;;;2.20;99.90;;;;;;4984973;28;20057;-78
2023/12/06 07:16:47;;;;;;;25.83;14.95;;;1.90;99.90;;;;;;5000954;28;20053;-78
2023/12/06 07:19:13;;;;;;;29.73;16.45;;;2.10;99.90;;;;;;5001069;28;20046;-78
2023/12/06 07:21:39;;;;;;;24.83;15.75;;;2.00;99.90;;;;;;4986687;28;20410;-78
2023/12/06 07:24:04;;;;;;;25.60;15.98;;;2.20;99.90;;;;;;5002115;28;20046;-78
2023/12/06 07:26:30;;;;;;;24.33;14.60;;;2.30;99.90;;;;;;5001130;28;20081;-78
2023/12/06 07:28:56;;;;;;;22.42;14.27;;;2.10;99.90;;;;;;5000896;28;20046;-79
2023/12/06 07:31:21;;;;;;;26.23;14.20;;;2.30;99.90;;;;;;5001706;28;20039;-79
2023/12/06 07:33:50;;;;;;;21.33;13.88;;;2.20;99.90;;;;;;5017551;28;20038;-78
2023/12/06 07:36:15;;;;;;;21.38;13.80;;;2.20;99.90;;;;;;5001210;28;20050;-78
2023/12/06 07:38:41;;;;;;;22.38;15.13;;;2.10;99.90;;;;;;5001077;28;20073;-78
2023/12/06 07:41:07;;;;;;;23.85;14.98;;;2.10;99.90;;;;;;5000369;28;20124;-78
2023/12/06 07:43:32;;;;;;;23.73;14.90;;;2.20;99.90;;;;;;5000716;28;20030;-78
2023/12/06 07:45:58;;;;;;;24.23;14.13;;;2.20;99.90;;;;;;4995737;28;20073;-78
2023/12/06 07:48:24;;;;;;;20.77;14.02;;;2.20;99.90;;;;;;4992328;28;20092;-78
2023/12/06 07:50:50;;;;;;;18.50;13.07;;;2.30;99.90;;;;;;4985015;28;20078;-78
2023/12/06 07:53:15;;;;;;;23.35;13.63;;;2.30;99.90;;;;;;4977976;28;20053;-78
2023/12/06 07:55:41;;;;;;;23.30;14.82;;;2.10;99.90;;;;;;4992772;28;20418;-78
2023/12/06 07:58:07;;;;;;;19.88;11.55;;;2.30;99.90;;;;;;5001159;28;20042;-78
2023/12/06 08:00:34;;;;;;;22.17;13.85;;;2.20;99.90;;;;;;5000945;28;20096;-78
2023/12/06 08:02:59;;;;;;;19.52;13.27;;;2.40;99.90;;;;;;4999524;28;20049;-78
2023/12/06 08:05:25;;;;;;;19.02;12.75;;;2.10;99.90;;;;;;4999101;28;20078;-78
2023/12/06 08:07:51;;;;;;;26.00;13.95;;;2.10;99.90;;;;;;4999240;28;20044;-78
2023/12/06 08:10:22;;;;;;;20.48;13.52;;;2.20;99.90;;;;;;4999367;28;20173;-78
2023/12/06 08:12:49;;;;;;;22.65;14.70;;;2.30;99.90;;;;;;4983226;28;20042;-78
2023/12/06 08:15:15;;;;;;;22.75;14.27;;;2.20;99.90;;;;;;4981633;28;20042;-78
2023/12/06 08:17:41;;;;;;;22.40;14.15;;;2.40;99.90;;;;;;4997795;28;20038;-78
2023/12/06 08:20:10;;;;;;;26.95;13.98;;;2.30;99.90;;;;;;4997041;28;20042;-78
2023/12/06 08:22:36;;;;;;;24.25;13.35;;;2.10;99.90;;;;;;4997911;28;20042;-78
2023/12/06 08:25:01;;;;;;;22.75;14.02;;;2.30;99.90;;;;;;4996962;28;20041;-78
2023/12/06 08:27:29;;;;;;;21.80;14.38;;;2.40;99.90;;;;;;4996690;28;20038;-79
2023/12/06 08:29:55;;;;;;;21.50;13.60;;;2.20;99.90;;;;;;4996151;28;20098;-78
2023/12/06 08:32:21;;;;;;;21.23;14.38;;;2.20;99.90;;;;;;4991817;28;20560;-78
2023/12/06 08:34:48;;;;;;;21.63;13.93;;;2.40;99.90;;;;;;4977454;28;20042;-78
2023/12/06 08:37:14;;;;;;;22.45;13.82;;;2.40;99.90;;;;;;4980613;28;20081;-79
2023/12/06 08:39:39;;;;;;;24.88;14.85;;;2.40;99.90;;;;;;4996374;28;20045;-78
2023/12/06 08:42:05;;;;;;;28.75;16.23;;;2.20;99.90;;;;;;4996227;28;20085;-79
2023/12/06 08:44:31;;;;;;;22.20;14.85;;;2.20;99.90;;;;;;4999571;28;20039;-79
2023/12/06 08:46:57;;;;;;;24.10;14.93;;;2.40;99.90;;;;;;4999990;28;20046;-79
2023/12/06 08:49:22;;;;;;;23.60;15.77;;;2.40;99.90;;;;;;4998342;28;20052;-79
2023/12/06 08:51:48;;;;;;;22.40;14.93;;;2.30;99.90;;;;;;4997514;28;20096;-78
2023/12/06 08:54:13;;;;;;;23.95;15.35;;;2.20;99.90;;;;;;5013067;28;20502;-78
2023/12/06 08:56:39;;;;;;;24.85;15.77;;;2.20;99.90;;;;;;4999275;28;20046;-79
2023/12/06 08:59:06;;;;;;;23.70;15.20;;;2.40;99.90;;;;;;4996885;28;20049;-78
2023/12/06 09:01:32;;;;;;;25.80;16.20;;;2.30;99.90;;;;;;4998499;28;20035;-78
2023/12/06 09:03:57;;;;;;;22.30;14.85;;;2.60;99.90;;;;;;4998628;28;20038;-79
2023/12/06 09:06:23;;;;;;;23.13;15.77;;;2.60;99.90;;;;;;5000972;28;20469;-79
2023/12/06 09:08:49;;;;;;;24.33;13.98;;;2.30;99.90;;;;;;5001237;28;20046;-79
2023/12/06 09:11:21;;;;;;;28.30;15.32;;;2.30;99.90;;;;;;5001450;28;20050;-80
2023/12/06 09:13:48;;;;;;;25.02;17.00;;;2.40;99.90;;;;;;4999497;28;20038;-78
2023/12/06 09:16:14;;;;;;;27.92;15.60;;;2.30;99.90;;;;;;4999620;28;20049;-78
2023/12/06 09:18:39;;;;;;;21.88;14.68;;;2.60;99.90;;;;;;4997596;28;20173;-78
2023/12/06 09:21:05;;;;;;;25.25;14.63;;;2.50;99.90;;;;;;4994578;28;20106;-77
2023/12/06 09:23:32;;;;;;;26.15;15.43;;;2.60;99.90;;;;;;4995898;28;20041;-78
2023/12/06 09:25:59;;;;;;;26.80;14.55;;;2.40;99.90;;;;;;4977383;28;20043;-78
2023/12/06 09:28:25;;;;;;;23.48;14.80;;;2.60;99.90;;;;;;4993975;28;20498;-77
2023/12/06 09:30:51;;;;;;;23.70;14.73;;;2.40;99.90;;;;;;4998687;28;20058;-78
2023/12/06 09:33:18;;;;;;;22.52;14.13;;;2.40;99.90;;;;;;4994463;28;20050;-78
2023/12/06 09:35:44;;;;;;;23.63;14.70;;;2.60;99.90;;;;;;4996641;28;20122;-78
2023/12/06 09:38:09;;;;;;;18.77;12.77;;;2.40;99.90;;;;;;4996827;28;20081;-78
2023/12/06 09:40:35;;;;;;;19.80;13.80;;;2.40;99.90;;;;;;4998273;28;20042;-78
2023/12/06 09:43:04;;;;;;;20.90;13.32;;;2.50;99.90;;;;;;4999592;28;20481;-79
2023/12/06 09:45:30;;;;;;;23.67;13.50;;;2.60;99.90;;;;;;4997961;28;20148;-78
2023/12/06 09:47:57;;;;;;;20.58;13.50;;;2.50;99.90;;;;;;4955357;28;20121;-78
2023/12/06 09:50:25;;;;;;;20.15;13.68;;;2.70;99.90;;;;;;4969584;28;20495;-77
2023/12/06 09:52:52;;;;;;;21.23;12.80;;;2.60;99.90;;;;;;4974798;28;20043;-79
2023/12/06 09:55:25;;;;;;;21.77;13.25;;;2.60;99.90;;;;;;4981037;28;20491;-78
2023/12/06 09:57:51;;;;;;;22.50;13.90;;;2.60;99.90;;;;;;4976976;28;20054;-78
2023/12/06 10:00:17;;;;;;;20.00;13.75;;;2.80;99.90;;;;;;4977731;28;20054;-77
2023/12/06 10:02:50;;;;;;;21.42;13.35;;;2.60;99.90;;;;;;4983221;28;20039;-78
2023/12/06 10:05:16;;;;;;;27.10;13.60;;;2.80;99.90;;;;;;4981295;28;20043;-78
2023/12/06 10:07:41;;;;;;;20.00;13.15;;;2.60;99.90;;;;;;4980912;28;20050;-78
2023/12/06 10:10:18;;;;;;;21.55;14.02;;;2.80;99.90;;;;;;4984910;28;20050;-79
2023/12/06 10:12:52;;;;;;;22.50;13.45;;;2.60;99.90;;;;;;4976043;28;20092;-79
2023/12/06 10:15:19;;;;;;;25.83;14.63;;;2.90;99.90;;;;;;4974860;28;20330;-79
2023/12/06 10:17:45;;;;;;;24.42;13.35;;;2.60;99.90;;;;;;4973524;28;20499;-79
2023/12/06 10:20:10;;;;;;;20.98;14.63;;;2.90;99.90;;;;;;4975135;28;20045;-79
2023/12/06 10:22:36;;;;;;;19.38;13.50;;;2.60;99.90;;;;;;4986054;28;20031;-79
2023/12/06 10:25:06;;;;;;;20.10;14.30;;;2.80;99.90;;;;;;4962699;28;20102;-79
2023/12/06 10:27:32;;;;;;;24.88;15.27;;;2.70;99.90;;;;;;4948881;29;20062;-80
2023/12/06 10:29:57;;;;;;;21.48;14.90;;;2.90;99.90;;;;;;4946229;29;20039;-79
2023/12/06 10:32:23;;;;;;;25.02;15.38;;;2.80;99.90;;;;;;4964017;29;20066;-79
2023/12/06 10:34:50;;;;;;;26.02;14.75;;;2.90;99.90;;;;;;4963501;29;20049;-80
2023/12/06 10:37:20;;;;;;;19.17;14.07;;;2.70;99.90;;;;;;4962731;28;20039;-80
2023/12/06 10:39:49;;;;;;;22.20;13.93;;;3.00;99.90;;;;;;4965527;28;20051;-80
2023/12/06 10:42:24;;;;;;;24.10;14.93;;;3.00;99.90;;;;;;4975525;28;20045;-79
2023/12/06 10:44:51;;;;;;;21.58;14.02;;;2.80;99.90;;;;;;4976552;28;20038;-81
2023/12/06 10:47:17;;;;;;;21.85;14.43;;;3.00;99.90;;;;;;4976977;28;20062;-79
2023/12/06 10:49:45;;;;;;;20.73;13.68;;;2.80;99.90;;;;;;4973756;28;20038;-79
2023/12/06 10:52:11;;;;;;;19.08;13.23;;;3.10;99.90;;;;;;4986515;28;20034;-79
2023/12/06 10:54:38;;;;;;;23.25;14.73;;;3.00;99.90;;;;;;4994346;28;20049;-79
2023/12/06 10:57:04;;;;;;;21.83;13.90;;;3.10;99.90;;;;;;5004277;28;20070;-79
2023/12/06 10:59:31;;;;;;;21.45;14.15;;;3.10;99.90;;;;;;5004865;28;20096;-79
2023/12/06 11:01:57;;;;;;;21.70;14.00;;;2.80;99.90;;;;;;4988137;28;20410;-79
2023/12/06 11:04:36;;;;;;;22.60;13.43;;;3.00;99.90;;;;;;5004267;28;20034;-79
2023/12/06 11:07:23;;;;;;;20.98;13.80;;;3.00;99.90;;;;;;4997485;28;20038;-78
2023/12/06 11:10:05;;;;;;;23.73;13.98;;;2.90;99.90;;;;;;4996697;28;20046;-79
2023/12/06 11:12:40;;;;;;;20.70;12.98;;;2.80;99.90;;;;;;4996349;28;20172;-78
2023/12/06 11:15:32;;;;;;;20.52;13.88;;;3.10;99.90;;;;;;4996032;28;20050;-78
2023/12/06 11:18:18;;;;;;;20.55;12.95;;;3.10;99.90;;;;;;4991393;28;20050;-81
2023/12/06 11:20:43;;;;;;;19.67;13.90;;;3.00;99.90;;;;;;4975456;28;20419;-79
2023/12/06 11:23:10;;;;;;;21.45;13.25;;;2.90;99.90;;;;;;4973638;28;20035;-80
2023/12/06 11:25:47;;;;;;;22.80;14.90;;;3.10;99.90;;;;;;4969081;28;20031;-82
2023/12/06 11:28:14;;;;;;;20.38;13.23;;;3.20;99.90;;;;;;4964647;29;20039;-80
2023/12/06 11:30:47;;;;;;;22.20;14.25;;;3.20;99.90;;;;;;4964139;29;20047;-80
2023/12/06 11:33:13;;;;;;;20.00;14.13;;;3.10;99.90;;;;;;4949604;29;20050;-80
2023/12/06 11:35:53;;;;;;;23.73;13.57;;;3.30;99.90;;;;;;4965863;29;20079;-79
2023/12/06 11:38:19;;;;;;;22.48;14.25;;;3.30;99.90;;;;;;4969073;28;20047;-79
2023/12/06 11:40:52;;;;;;;23.02;14.05;;;3.10;99.90;;;;;;4966274;29;20474;-79
2023/12/06 11:43:43;;;;;;;23.52;14.73;;;3.20;99.90;;;;;;4950244;29;20084;-79
2023/12/06 11:46:10;;;;;;;27.08;14.82;;;3.40;99.90;;;;;;4970791;28;20034;-79
2023/12/06 11:48:45;;;;;;;23.20;14.13;;;3.20;99.90;;;;;;4972771;28;20035;-79
2023/12/06 11:51:19;;;;;;;30.52;15.45;;;3.30;99.90;;;;;;4981215;28;20078;-79
2023/12/06 11:53:45;;;;;;;19.92;13.25;;;3.40;99.90;;;;;;4974528;28;20102;-79
2023/12/06 11:56:11;;;;;;;22.00;14.25;;;3.20;99.90;;;;;;4973086;28;20039;-80
2023/12/06 11:58:36;;;;;;;20.02;13.07;;;3.40;99.90;;;;;;4970926;28;20051;-81
2023/12/06 12:01:03;;;;;;;23.38;13.25;;;3.20;99.90;;;;;;4975008;28;20037;-81
2023/12/06 12:03:30;;;;;;;26.23;14.90;;;3.40;99.90;;;;;;4974672;28;20042;-80
2023/12/06 12:05:57;;;;;;;24.95;14.68;;;3.50;99.90;;;;;;4979246;28;20046;-80
2023/12/06 12:08:24;;;;;;;24.52;15.15;;;3.20;99.90;;;;;;4977548;28;20047;-79
2023/12/06 12:10:50;;;;;;;21.05;13.07;;;3.20;99.90;;;;;;4979387;28;20085;-79
2023/12/06 12:13:22;;;;;;;23.90;13.30;;;3.30;99.90;;;;;;4978903;28;20130;-79
2023/12/06 12:16:01;;;;;;;19.48;13.07;;;3.40;99.90;;;;;;4964338;28;20510;-79
2023/12/06 12:18:28;;;;;;;17.80;11.90;;;3.40;99.90;;;;;;4981957;28;20043;-79
2023/12/06 12:20:55;;;;;;;19.98;12.95;;;3.50;99.90;;;;;;4980715;28;20039;-79
2023/12/06 12:23:28;;;;;;;22.20;12.63;;;3.50;99.90;;;;;;4978104;28;20046;-79
2023/12/06 12:25:54;;;;;;;19.90;13.00;;;3.30;99.90;;;;;;4975151;28;20043;-80
2023/12/06 12:28:21;;;;;;;21.63;13.05;;;3.40;99.90;;;;;;4966509;28;20039;-79
2023/12/06 12:30:55;;;;;;;20.60;12.70;;;3.40;99.90;;;;;;4961245;29;20039;-79
2023/12/06 12:33:22;;;;;;;19.05;12.77;;;3.30;99.90;;;;;;4963578;29;20422;-80